Troy, North Carolina
Current Conditions -  °F | °C
As of 12:55 AM on Wednesday 22 Oct 2014 (Local Time) from KVUJ Reporting Station
Clear Clear  
Wind Chill: 12°   Ceiling: Unl
Heat Index: 12°   Visibility: 10mi
Dew Point:   Wind: 9mph
Humidity: 58%   Direction: 350°N
Pressure: 30.02"   Gusts: NA
Location:  35.36°N, 79.89°W
Report Text: KVUJ 220455Z AUTO 35008KT 10SM CLR 12/04 A3002 RMK AO2 LTG DSNT E T01200040 402360055
Loading
Personal Weather Stations






























Interactive Weather Map
Tropical Storm Tracking
New forecast layout! Learn more

10-Day Weather Forecast

Advertisements
Track Severe Weather on mobile